createdAt,value
2023-05-19T00:04:49.206Z,10.45
2023-05-19T00:09:51.033Z,10.44
2023-05-19T00:14:52.494Z,10.43
2023-05-19T00:19:54.567Z,10.42
2023-05-19T00:24:56.734Z,10.42
2023-05-19T00:29:58.555Z,10.39
2023-05-19T00:35:00.511Z,10.37
2023-05-19T00:40:01.676Z,10.32
2023-05-19T00:45:03.457Z,10.31
2023-05-19T00:50:05.090Z,10.32
2023-05-19T00:55:06.465Z,10.29
2023-05-19T01:00:08.208Z,10.31
2023-05-19T01:05:09.717Z,10.25
2023-05-19T01:10:11.109Z,10.22
2023-05-19T01:15:12.633Z,10.18
2023-05-19T01:20:13.998Z,10.17
2023-05-19T01:25:15.385Z,10.17
2023-05-19T01:30:17.054Z,10.14
2023-05-19T01:35:18.463Z,10.13
2023-05-19T01:40:20.014Z,10.1
2023-05-19T01:45:21.239Z,10.1
2023-05-19T01:50:22.786Z,10.06
2023-05-19T01:55:24.845Z,10.03
2023-05-19T02:00:26.125Z,10.04
2023-05-19T02:05:27.525Z,10.07
2023-05-19T02:10:29.357Z,10.02
2023-05-19T02:15:30.554Z,10.05
2023-05-19T02:20:32.290Z,10.04
2023-05-19T02:25:33.728Z,10.07
2023-05-19T02:30:35.789Z,10.07
2023-05-19T02:35:37.522Z,10.09
2023-05-19T02:40:38.935Z,10.08
2023-05-19T02:45:40.893Z,10.08
2023-05-19T02:50:42.704Z,10.09
2023-05-19T02:55:44.208Z,10.1
2023-05-19T03:00:45.997Z,10.12
2023-05-19T03:05:47.821Z,10.08
2023-05-19T03:10:49.172Z,10.08
2023-05-19T03:15:50.578Z,10.09
2023-05-19T03:20:51.753Z,10.09
2023-05-19T03:25:53.485Z,10.09
2023-05-19T03:30:54.729Z,10.08
2023-05-19T03:35:56.103Z,10.06
2023-05-19T03:40:57.788Z,10.02
2023-05-19T03:45:59.535Z,10.01
2023-05-19T03:51:01.651Z,10.02
2023-05-19T03:51:07.971Z,10.02
2023-05-19T03:56:09.595Z,10.02
2023-05-19T04:01:10.786Z,10.03
2023-05-19T04:06:12.062Z,10.02
2023-05-19T04:11:13.601Z,10.04
2023-05-19T04:16:15.543Z,10.04
2023-05-19T04:21:17.245Z,9.97
2023-05-19T04:26:19.222Z,9.95
2023-05-19T04:31:21.296Z,9.93
2023-05-19T04:36:23.453Z,9.89
2023-05-19T04:41:25.264Z,9.83
2023-05-19T04:46:26.468Z,9.84
2023-05-19T04:51:30.424Z,9.85
2023-05-19T04:56:29.991Z,9.88
2023-05-19T05:01:31.461Z,9.93
2023-05-19T05:06:32.463Z,9.92
2023-05-19T05:11:34.597Z,9.92
2023-05-19T05:16:36.094Z,9.95
2023-05-19T05:21:38.172Z,9.95
2023-05-19T05:26:39.478Z,10
2023-05-19T05:31:40.959Z,10.08
2023-05-19T05:36:42.640Z,10.13
2023-05-19T05:41:44.460Z,10.14
2023-05-19T05:46:46.188Z,10.24
2023-05-19T05:51:54.527Z,10.29
2023-05-19T05:56:49.342Z,10.39
2023-05-19T06:01:51.062Z,10.48
2023-05-19T06:06:52.514Z,10.58
2023-05-19T06:11:54.007Z,10.69
2023-05-19T06:16:55.202Z,10.82
2023-05-19T06:21:57.011Z,10.95
2023-05-19T06:26:58.286Z,11.09
2023-05-19T06:32:00.233Z,11.22
2023-05-19T06:37:01.861Z,11.35
2023-05-19T06:42:03.690Z,11.46
2023-05-19T06:47:05.904Z,11.53
2023-05-19T06:52:07.621Z,11.64
2023-05-19T06:57:09.320Z,11.76
2023-05-19T07:02:11.205Z,11.82
2023-05-19T07:07:13.149Z,11.9
2023-05-19T07:12:15.218Z,11.98
2023-05-19T07:17:16.588Z,12.03
2023-05-19T07:22:17.799Z,12.09
2023-05-19T07:27:19.578Z,12.17
2023-05-19T07:32:21.066Z,12.25
2023-05-19T07:37:23.101Z,12.34
2023-05-19T07:42:24.670Z,12.43
2023-05-19T07:47:35.471Z,12.48
2023-05-19T07:52:28.213Z,12.53
2023-05-19T07:57:30.227Z,12.62
2023-05-19T08:02:31.533Z,12.68
2023-05-19T08:07:32.898Z,12.71
2023-05-19T08:12:34.752Z,12.75
2023-05-19T08:17:36.454Z,12.78
2023-05-19T08:22:38.370Z,12.82
2023-05-19T08:27:40.122Z,12.88
2023-05-19T08:32:41.864Z,12.92
2023-05-19T08:37:43.821Z,13
2023-05-19T08:42:45.503Z,13.07
2023-05-19T08:47:47.530Z,13.14
2023-05-19T08:52:50.309Z,13.2
2023-05-19T08:57:50.073Z,13.21
2023-05-19T09:02:59.628Z,13.25
2023-05-19T09:07:54.303Z,13.24
2023-05-19T09:12:55.744Z,13.28
2023-05-19T09:17:57.866Z,13.26
2023-05-19T09:22:59.686Z,13.17
2023-05-19T09:28:01.157Z,13.21
2023-05-19T09:33:02.548Z,13.28
2023-05-19T09:38:03.783Z,13.14
2023-05-19T09:43:05.778Z,13.1
2023-05-19T10:08:13.669Z,13.14
2023-05-19T10:33:22.274Z,13.61
2023-05-19T12:13:55.114Z,14.75
2023-05-19T12:29:00.267Z,15.37
2023-05-19T12:39:03.392Z,15.64
2023-05-19T12:44:05.416Z,15.69
2023-05-19T12:49:06.723Z,15.69
2023-05-19T12:54:08.717Z,15.75
2023-05-19T12:59:10.192Z,15.84
2023-05-19T13:04:11.573Z,16.12
2023-05-19T13:09:14.699Z,16.19
2023-05-19T13:14:15.538Z,16.37
2023-05-19T13:19:24.784Z,16.54
2023-05-19T13:24:19.416Z,16.79
2023-05-19T13:29:20.619Z,17.58
2023-05-19T13:34:21.828Z,18.04
2023-05-19T13:39:23.971Z,18.52
2023-05-19T13:44:25.725Z,19.2
2023-05-19T13:49:27.514Z,19.37
2023-05-19T13:54:29.639Z,19.79
2023-05-19T13:59:31.635Z,20.39
2023-05-19T14:04:33.205Z,21.41
2023-05-19T14:09:34.978Z,22.43
2023-05-19T14:14:37.162Z,23.17
2023-05-19T14:19:38.948Z,23.87
2023-05-19T14:24:40.372Z,24.97
2023-05-19T14:29:42.538Z,24.27
2023-05-19T14:34:44.462Z,24.23
2023-05-19T14:39:46.255Z,24.39
2023-05-19T14:44:48.323Z,25.41
2023-05-19T14:49:50.320Z,25.6
2023-05-19T14:54:51.959Z,26.43
2023-05-19T14:59:54.145Z,27.3
2023-05-19T15:04:55.851Z,27.74
2023-05-19T15:09:57.882Z,27.42
2023-05-19T15:14:59.421Z,26.9
2023-05-19T15:20:01.044Z,26.8
2023-05-19T15:25:02.588Z,26.58
2023-05-19T15:30:04.696Z,26.34
2023-05-19T15:35:06.826Z,25.94
2023-05-19T15:40:08.288Z,25.25
2023-05-19T15:45:10.118Z,24.5
2023-05-19T15:50:12.229Z,24
2023-05-19T15:55:13.572Z,23.41
2023-05-19T16:00:15.721Z,22.8
2023-05-19T16:05:17.838Z,22.39
2023-05-19T16:10:19.112Z,22.05
2023-05-19T16:15:20.905Z,21.57
2023-05-19T16:20:22.175Z,20.94
2023-05-19T16:25:23.393Z,20.74
2023-05-19T16:30:25.484Z,20.46
2023-05-19T16:35:27.520Z,19.92
2023-05-19T16:40:30.797Z,19.5
2023-05-19T16:45:30.621Z,19.06
2023-05-19T16:50:32.452Z,18.57
2023-05-19T16:55:34.400Z,18.34
2023-05-19T17:00:37.995Z,18
2023-05-19T17:05:37.838Z,17.79
2023-05-19T17:10:39.863Z,17.7
2023-05-19T17:15:43.155Z,17.64
2023-05-19T17:20:42.822Z,17.52
2023-05-19T17:25:44.712Z,17.37
2023-05-19T17:30:46.557Z,17.28
2023-05-19T17:35:48.602Z,17.2
2023-05-19T17:40:50.154Z,17.06
2023-05-19T17:45:52.262Z,16.86
2023-05-19T17:50:54.026Z,16.79
2023-05-19T17:55:55.428Z,16.75
2023-05-19T18:00:57.309Z,16.7
2023-05-19T18:05:58.943Z,16.64
2023-05-19T18:11:00.739Z,16.58
2023-05-19T18:16:02.954Z,16.49
2023-05-19T18:21:04.204Z,16.44
2023-05-19T18:26:05.498Z,16.26
2023-05-19T18:31:07.325Z,16.11
2023-05-19T18:36:09.427Z,16.03
2023-05-19T18:41:10.840Z,15.98
2023-05-19T18:46:12.213Z,15.88
2023-05-19T18:51:13.731Z,15.85
2023-05-19T18:56:14.987Z,15.81
2023-05-19T19:01:16.954Z,15.79
2023-05-19T19:06:18.546Z,15.75
2023-05-19T19:11:20.492Z,15.71
2023-05-19T19:16:22.591Z,15.69
2023-05-19T19:21:24.534Z,15.64
2023-05-19T19:26:26.325Z,15.58
2023-05-19T19:31:28.418Z,15.51
2023-05-19T19:36:29.575Z,15.44
2023-05-19T19:41:31.719Z,15.41
2023-05-19T19:46:33.525Z,15.37
2023-05-19T19:51:34.987Z,15.33
2023-05-19T19:56:36.454Z,15.31
2023-05-19T20:01:38.164Z,15.28
2023-05-19T20:06:40.050Z,15.22
2023-05-19T20:11:41.279Z,15.14
2023-05-19T20:16:43.262Z,15.09
2023-05-19T20:21:44.443Z,15.03
2023-05-19T20:26:45.869Z,14.92
2023-05-19T20:31:47.605Z,14.88
2023-05-19T20:36:49.602Z,14.84
2023-05-19T20:41:57.345Z,14.78
2023-05-19T20:46:58.548Z,14.77
2023-05-19T20:52:00.486Z,14.73
2023-05-19T20:57:02.297Z,14.73
2023-05-19T21:02:04.027Z,14.73
2023-05-19T21:07:05.858Z,14.72
2023-05-19T21:12:07.060Z,14.73
2023-05-19T21:17:08.705Z,14.71
2023-05-19T21:22:10.067Z,14.59
2023-05-19T21:27:11.294Z,14.52
2023-05-19T21:32:13.288Z,14.46
2023-05-19T21:37:15.138Z,14.38
2023-05-19T21:42:17.188Z,14.27
2023-05-19T21:47:18.837Z,14.17
2023-05-19T21:52:20.313Z,14.07
2023-05-19T21:57:22.159Z,13.96
2023-05-19T22:02:23.503Z,13.82
2023-05-19T22:07:25.206Z,13.7
2023-05-19T22:12:26.453Z,13.59
2023-05-19T22:17:27.956Z,13.45
2023-05-19T22:22:29.485Z,13.35
2023-05-19T22:27:30.803Z,13.23
2023-05-19T22:32:32.034Z,13.1
2023-05-19T22:37:33.862Z,12.96
2023-05-19T22:42:35.154Z,12.87
2023-05-19T22:47:36.330Z,12.81
2023-05-19T22:52:37.756Z,12.74
2023-05-19T22:57:39.333Z,12.69
2023-05-19T23:02:41.289Z,12.6
2023-05-19T23:07:42.879Z,12.5
2023-05-19T23:12:44.043Z,12.42
2023-05-19T23:17:45.542Z,12.37
2023-05-19T23:22:47.650Z,12.33
2023-05-19T23:27:50.339Z,12.28
2023-05-19T23:32:51.334Z,12.24
2023-05-19T23:37:53.119Z,12.17
2023-05-19T23:42:54.433Z,12.11
2023-05-19T23:47:56.598Z,12.04
2023-05-19T23:52:58.521Z,11.99
2023-05-19T23:58:00.638Z,11.95
